Ride Results

Spring Mt (28-05-2016)
Ride distance: 80.0 km

Outcomes - Spring Mt (28-05-2016)
Division No. of Entries Retired / DNE Completed Withdrawn Ineligible V/O Percentage Completed
HW 7 - 3 2 - 2 42.86%
MW 12 - 11 - - 1 91.67%
LW 16 - 14 2 - - 87.50%
JN 3 - 0 - - 3 0.00%
Totals 38 - 28 4 - 6 73.68%
Results - Spring Mt (28-05-2016)
No. Rider Horse Place Time Leg Speeds Total
Km/Hr
H/R bpm
Heavyweight
224 Akhmed Pshunov Traveller te 1 (BC) 6:00:00 13.3, 13.3 13.33 36, 50, 48 (Avg:49)
218 Troy Butler Revere Shalee 2 6:07:00 13.7, 12.4 13.08 37, 43, 50 (Avg:46)
220 Casey Ward-Jones Redford 3 7:25:00 11.6, 10.0 10.79 40, 41, 56 (Avg:48)
234 Chris Holden True Sensie Lame L1 0:00:00 16.5 - 40, 43 (Avg:43)
202 Allen MacKenzie Hill Stone El Shahir Lame L1 0:00:00 13.7 - 33, 42, 55 (Avg:48)
226 Mark Nimon Abbeywood Le'Tigre Widthdrawn L1 0:00:00 - - 32, 42 (Avg:42)
227 Gary Surch Touchwarr Kiara Widthdrawn P/R 0:00:00 - - 35
Middleweight
203 Tanya Zanow Manet Ibn Rashan 1 (BC) 4:50:00 17.5, 15.6 16.55 36, 48, 44 (Avg:46)
223 Jamie Green Cameo Mazquerade 2 5:25:00 15.4, 14.1 14.77 33, 43, 42 (Avg:42)
215 Stephen Gray Crystal Beau 3 6:07:00 13.1, 12.9 13.08 33, 39, 40 (Avg:39)
240 Simone Krahnen Kalkadoon Zorro 4 6:22:00 12.4, 12.6 12.57 33, 42, 40 (Avg:41)
221 Ken Moir Miva Majnoun 5 6:25:00 11.7, 13.2 12.47 34, 48, 53 (Avg:50)
207 Gwen Bartolo Haaris 6 6:51:00 11.9, 11.4 11.68 31, 39, 45 (Avg:42)
236 Virginia Barber Warregal 7 6:53:00 11.5, 11.7 11.62 35, 42, 44 (Avg:43)
212 Natashja Burton Lindall La Flame 8 6:55:00 12.0, 11.1 11.57 35, 40, 49 (Avg:44)
213 Graysen Clarke Melcot Bella 9 6:57:00 12.1, 10.9 11.51 32, 35, 38 (Avg:36)
211 Antonia Jardine Cooper 9 6:57:00 12.1, 10.9 11.51 37, 49, 54 (Avg:51)
228 Michael Combe Nasr 11 6:59:00 11.6, 11.2 11.46 32, 42, 52 (Avg:47)
217 Fiona Fenech Abbeywood Where It's At Lame L2 0:00:00 2.1, 12.6 - 32, 48, 69 (Avg:58)
Lightweight
204 Jan Tyrrell Steel Poppy Bayeux 1 6:21:00 12.1, 13.1 12.60 33, 39, 49 (Avg:44)
239 Erin Krahnen Foxylicious 2 6:22:00 12.4, 12.6 12.57 39, 48, 59 (Avg:53)
238 Pandora Bevan Kynnum Park Jai 3 6:23:00 12.3, 12.6 12.53 36, 43, 49 (Avg:46)
237 Christal Rizk The Terminator 3 (BC) 6:23:00 12.4, 12.6 12.53 33, 40, 44 (Avg:42)
222 Kaylea Maher No Regret Shocking 5 6:25:00 11.7, 13.2 12.47 35, 49, 55 (Avg:52)
232 Katherine Bullen Lindall Las Vegas 6 6:55:00 12.0, 11.1 11.57 33, 35, 41 (Avg:38)
214 Virginia Dale Jum Jum Spirit 7 6:57:00 12.1, 10.9 11.51 38, 45, 50 (Avg:47)
229 Tahlia Franke Maxwell Staccato 8 6:59:00 11.6, 11.2 11.46 39, 41, 43 (Avg:42)
230 Caroline Windle Sarina Rosetta 8 6:59:00 11.6, 11.2 11.46 28, 39, 52 (Avg:45)
208 Jocelyn Barnes Trinity 10 7:27:00 10.9, 10.5 10.74 33, 38, 50 (Avg:44)
209 Janelle Weise Quiegly 10 7:27:00 10.9, 10.5 10.74 37, 44, 48 (Avg:46)
231 Carla Jones Kholonial Bartholomew 12 7:28:00 10.9, 10.5 10.71 32, 42, 42 (Avg:42)
201 Carol Kite Holly Hill's Billy Boy 13 7:48:00 12.3, 8.7 10.26 36, 49, 46 (Avg:47)
233 Cindy Holden San Juan 14 7:49:00 13.8, 12.3 10.23 30, 46, 41 (Avg:43)
210 Adrian Brickley Cameo Crimzon Moon Widthdrawn L2 0:00:00 - - 36, 40, 54 (Avg:47)
206 Kate Appleby Steel Poppy Midnight Rum Widthdrawn L1 0:00:00 - - 33, 44 (Avg:44)
Junior
216 Emma Dimech Morocco Lame L2 0:00:00 13.7, 12.4 - 37, 43, 50 (Avg:46)
235 Georgie Barber Bandit Lame L1 0:00:00 11.5 - 42, 42 (Avg:42)
219 Kenzie Roberton Lindall Flashpoint Lame L1 0:00:00 13.7 - 32, 42 (Avg:42)